Time;durP1;ratioP1;P1;durP2;ratioP2;P2;SDS_P1;SDS_P2;PMS_P1;PMS_P2;Temp;Humidity;BMP_temperature;BMP_pressure;BME280_temperature;BME280_humidity;BME280_pressure;Samples;Min_cycle;Max_cycle;Signal;HPM_P1;HPM_P2
2022/03/18 00:02:25;;;;;;;16.73;9.55;;;;;;;2.98;84.65;103578.44;5022124;28;20033;-77
2022/03/18 00:04:53;;;;;;;18.63;8.90;;;;;;;2.95;85.01;103576.75;5003976;28;20026;-78
2022/03/18 00:07:21;;;;;;;25.65;9.85;;;;;;;2.93;84.95;103576.81;5006547;28;20056;-77
2022/03/18 00:09:50;;;;;;;19.38;9.57;;;;;;;2.92;85.08;103579.44;5007957;28;20029;-77
2022/03/18 00:12:16;;;;;;;17.00;9.73;;;;;;;2.91;84.91;103585.41;5026026;28;20401;-77
2022/03/18 00:14:42;;;;;;;21.33;9.73;;;;;;;2.87;84.76;103587.22;5025353;28;20046;-77
2022/03/18 00:17:09;;;;;;;20.67;9.02;;;;;;;2.81;85.18;103584.81;5025628;28;20080;-77
2022/03/18 00:19:36;;;;;;;25.60;10.55;;;;;;;2.79;85.20;103584.00;5026422;28;20143;-77
2022/03/18 00:22:03;;;;;;;18.40;9.45;;;;;;;2.79;85.06;103588.28;5023658;28;20033;-77
2022/03/18 00:24:31;;;;;;;17.73;9.30;;;;;;;2.74;85.22;103590.97;5026955;28;20055;-77
2022/03/18 00:27:01;;;;;;;24.42;9.98;;;;;;;2.70;84.98;103595.31;5024668;28;20456;-77
2022/03/18 00:29:27;;;;;;;23.98;9.80;;;;;;;2.65;85.28;103596.28;5008181;28;20096;-77
2022/03/18 00:31:53;;;;;;;25.83;9.57;;;;;;;2.61;85.48;103595.53;5022159;28;20116;-77
2022/03/18 00:34:19;;;;;;;19.48;9.07;;;;;;;2.63;85.50;103595.50;5006717;28;20037;-77
2022/03/18 00:36:44;;;;;;;21.27;10.38;;;;;;;2.61;85.26;103585.28;5014468;28;20030;-77
2022/03/18 00:39:10;;;;;;;20.08;8.85;;;;;;;2.55;85.51;103587.16;5008275;28;20044;-77
2022/03/18 00:41:35;;;;;;;20.77;9.35;;;;;;;2.53;85.72;103595.69;5023862;28;20032;-77
2022/03/18 00:44:01;;;;;;;20.33;9.05;;;;;;;2.53;85.83;103595.69;5023654;28;20041;-77
2022/03/18 00:46:26;;;;;;;19.08;8.90;;;;;;;2.53;85.60;103592.31;5024203;28;20123;-77
2022/03/18 00:54:21;;;;;;;26.85;9.48;;;;;;;2.51;86.17;103606.88;5023024;28;20029;-77
2022/03/18 00:56:46;;;;;;;21.45;9.07;;;;;;;2.50;85.81;103616.25;5017924;28;20406;-77
2022/03/18 00:59:12;;;;;;;19.17;9.57;;;;;;;2.49;86.57;103617.16;4993540;28;20040;-77
2022/03/18 01:01:38;;;;;;;22.83;9.98;;;;;;;2.46;86.08;103612.09;5023309;28;20029;-77
2022/03/18 01:04:04;;;;;;;19.92;9.15;;;;;;;2.43;86.54;103619.84;5021380;28;20104;-77
2022/03/18 01:06:31;;;;;;;19.23;9.52;;;;;;;2.38;86.44;103616.53;5022252;28;20635;-77
2022/03/18 01:08:56;;;;;;;23.80;9.27;;;;;;;2.37;86.61;103622.53;5008551;28;20159;-77
2022/03/18 01:11:22;;;;;;;19.60;9.43;;;;;;;2.37;86.78;103624.25;5018499;28;20435;-77
2022/03/18 01:13:47;;;;;;;22.33;9.85;;;;;;;2.33;86.92;103624.31;5018495;28;20149;-77
2022/03/18 01:16:13;;;;;;;17.33;8.80;;;;;;;2.29;87.01;103625.25;4987804;28;20041;-77
2022/03/18 01:18:39;;;;;;;20.10;9.80;;;;;;;2.27;86.77;103636.44;5008379;28;20029;-77
2022/03/18 01:21:05;;;;;;;17.50;9.32;;;;;;;2.25;86.88;103633.88;5012801;28;20655;-77
2022/03/18 01:23:30;;;;;;;19.40;9.45;;;;;;;2.23;86.62;103622.00;5008358;28;20036;-77
2022/03/18 01:25:56;;;;;;;20.92;10.07;;;;;;;2.20;86.87;103622.06;5006181;28;20025;-77
2022/03/18 01:28:22;;;;;;;22.25;9.57;;;;;;;2.15;86.92;103624.72;5009612;28;20505;-78
2022/03/18 01:30:48;;;;;;;19.30;9.73;;;;;;;2.13;86.94;103629.03;5026313;28;20141;-77
2022/03/18 01:33:13;;;;;;;18.42;8.52;;;;;;;2.09;86.92;103627.41;5013627;28;20037;-77
2022/03/18 01:35:39;;;;;;;17.45;8.65;;;;;;;2.08;86.49;103636.81;5024201;28;20462;-77
2022/03/18 01:38:04;;;;;;;18.67;8.75;;;;;;;2.03;86.86;103636.03;5023781;28;20029;-77
2022/03/18 01:40:31;;;;;;;17.80;9.00;;;;;;;2.03;86.74;103632.66;5021887;28;20037;-77
2022/03/18 01:42:56;;;;;;;20.25;9.60;;;;;;;2.01;86.58;103636.97;5005076;28;20040;-77
2022/03/18 01:45:22;;;;;;;18.52;9.27;;;;;;;1.98;86.47;103637.88;5012213;28;20029;-77
2022/03/18 01:47:47;;;;;;;22.00;10.13;;;;;;;1.95;86.48;103633.63;5023468;28;20517;-77
2022/03/18 01:50:14;;;;;;;17.63;9.43;;;;;;;1.93;86.08;103637.13;4991506;28;20045;-77
2022/03/18 01:52:40;;;;;;;18.95;9.00;;;;;;;1.91;86.14;103629.47;5004656;28;20040;-77
2022/03/18 01:55:07;;;;;;;14.55;8.40;;;;;;;1.91;86.29;103636.31;5012342;28;20052;-77
2022/03/18 01:57:32;;;;;;;23.27;9.27;;;;;;;1.89;86.34;103636.34;5005893;28;20075;-77
2022/03/18 01:59:59;;;;;;;22.55;9.43;;;;;;;1.87;86.31;103632.13;5022882;28;20033;-77
2022/03/18 02:02:25;;;;;;;19.88;9.35;;;;;;;1.83;86.47;103641.56;4990430;28;20087;-77
2022/03/18 02:04:51;;;;;;;25.02;9.55;;;;;;;1.80;86.34;103649.31;5022785;28;20418;-77
2022/03/18 02:07:17;;;;;;;18.38;9.73;;;;;;;1.79;86.44;103654.44;5007083;28;20119;-77
2022/03/18 02:09:44;;;;;;;20.23;9.45;;;;;;;1.78;86.40;103660.44;5007097;28;20028;-77
2022/03/18 02:12:11;;;;;;;21.33;10.18;;;;;;;1.74;86.77;103663.06;4995252;28;20529;-77
2022/03/18 02:14:41;;;;;;;18.67;10.00;;;;;;;1.73;86.64;103663.06;5022294;28;20052;-77
2022/03/18 02:17:09;;;;;;;25.85;9.85;;;;;;;1.70;86.56;103669.09;5004132;28;20553;-77
2022/03/18 02:19:36;;;;;;;17.15;9.15;;;;;;;1.68;86.40;103677.69;5022669;28;20021;-77
2022/03/18 02:22:05;;;;;;;19.27;9.13;;;;;;;1.66;86.48;103680.28;5021822;28;20428;-77
2022/03/18 02:24:31;;;;;;;15.18;8.88;;;;;;;1.63;86.60;103680.31;5019989;28;20068;-77
2022/03/18 02:26:56;;;;;;;19.92;8.82;;;;;;;1.63;86.98;103684.59;5020600;28;20469;-77
2022/03/18 02:29:23;;;;;;;17.17;8.60;;;;;;;1.62;86.78;103683.75;5020096;28;20025;-77
2022/03/18 02:31:49;;;;;;;23.83;9.50;;;;;;;1.61;87.24;103686.34;4985572;28;20486;-77
2022/03/18 02:34:15;;;;;;;17.85;9.00;;;;;;;1.57;86.68;103685.53;5005469;28;20091;-76
2022/03/18 02:36:41;;;;;;;17.85;8.85;;;;;;;1.54;86.98;103680.47;5021761;28;20046;-77
2022/03/18 02:39:07;;;;;;;16.92;9.23;;;;;;;1.50;86.97;103682.25;5022658;28;20029;-77
2022/03/18 02:41:32;;;;;;;21.95;8.80;;;;;;;1.47;86.96;103691.69;5019483;28;20560;-77
2022/03/18 02:43:58;;;;;;;20.33;9.90;;;;;;;1.44;87.15;103681.50;5002167;28;20060;-77
2022/03/18 02:46:24;;;;;;;20.02;9.18;;;;;;;1.40;86.90;103682.44;5005415;28;20029;-77
2022/03/18 02:48:49;;;;;;;16.88;8.88;;;;;;;1.35;87.38;103680.78;5005302;28;20087;-77
2022/03/18 02:51:15;;;;;;;19.40;8.27;;;;;;;1.30;87.18;103690.25;5023180;28;20508;-77
2022/03/18 02:53:40;;;;;;;19.77;9.07;;;;;;;1.26;87.64;103688.63;5023477;28;20038;-77
2022/03/18 02:56:07;;;;;;;15.65;8.48;;;;;;;1.24;87.38;103697.19;5003122;28;20084;-77
2022/03/18 02:58:37;;;;;;;19.48;9.50;;;;;;;1.21;87.52;103692.13;5025699;28;20468;-77
2022/03/18 03:01:03;;;;;;;18.38;8.95;;;;;;;1.19;87.40;103698.94;5004568;28;20149;-77
2022/03/18 03:03:30;;;;;;;24.58;8.98;;;;;;;1.14;87.50;103704.16;5018980;28;20119;-76
2022/03/18 03:08:47;;;;;;;20.52;8.63;;;;;;;1.07;87.58;103707.66;4988180;28;21277;-77
2022/03/18 03:11:13;;;;;;;20.30;9.50;;;;;;;1.04;87.46;103700.06;5021414;28;20049;-77
2022/03/18 03:13:38;;;;;;;22.08;9.40;;;;;;;1.03;87.50;103708.56;5005436;28;20040;-77
2022/03/18 03:16:04;;;;;;;15.10;8.60;;;;;;;1.02;87.75;103709.44;5005260;28;20159;-77
2022/03/18 03:18:30;;;;;;;19.00;8.90;;;;;;;0.99;87.61;103718.00;5024388;28;20034;-77
2022/03/18 03:20:56;;;;;;;21.77;8.75;;;;;;;0.96;87.67;103708.69;5004492;28;20103;-77
2022/03/18 03:23:25;;;;;;;24.45;8.98;;;;;;;0.93;87.48;103708.72;5022111;28;20048;-77
2022/03/18 03:25:50;;;;;;;20.48;9.23;;;;;;;0.88;87.55;103699.41;5020609;28;20029;-77
2022/03/18 03:28:19;;;;;;;20.80;8.98;;;;;;;0.85;87.97;103705.44;5024236;28;20565;-77
2022/03/18 03:30:46;;;;;;;17.58;8.70;;;;;;;0.82;87.67;103712.28;5022982;28;20033;-77
2022/03/18 03:33:11;;;;;;;22.17;9.32;;;;;;;0.80;88.24;103717.41;5021692;28;20037;-77
2022/03/18 03:35:38;;;;;;;20.92;9.25;;;;;;;0.77;87.72;103714.91;5021978;28;20033;-77
2022/03/18 03:38:04;;;;;;;24.55;10.02;;;;;;;0.73;87.67;103719.19;5019144;28;20040;-77
2022/03/18 03:40:30;;;;;;;19.40;10.43;;;;;;;0.69;87.74;103716.72;5019969;28;20040;-77
2022/03/18 03:42:55;;;;;;;18.38;7.90;;;;;;;0.67;88.04;103721.00;5001740;28;20053;-76
2022/03/18 03:45:21;;;;;;;18.02;8.98;;;;;;;0.65;88.20;103727.84;5021448;28;20235;-77
2022/03/18 03:47:46;;;;;;;18.17;9.15;;;;;;;0.61;88.08;103721.09;5017992;28;20044;-77
2022/03/18 03:50:12;;;;;;;22.33;9.60;;;;;;;0.58;87.72;103725.38;5004915;28;20041;-77
2022/03/18 03:52:38;;;;;;;16.75;8.32;;;;;;;0.53;88.23;103727.13;5020253;28;20033;-76
2022/03/18 03:55:05;;;;;;;20.30;9.23;;;;;;;0.49;88.38;103733.16;5020425;28;20037;-76
2022/03/18 03:57:30;;;;;;;17.15;9.70;;;;;;;0.47;88.03;103742.53;5019721;28;20115;-77
2022/03/18 03:59:56;;;;;;;21.80;8.32;;;;;;;0.46;88.21;103743.41;5019369;28;20038;-77
2022/03/18 04:02:22;;;;;;;19.02;9.38;;;;;;;0.43;88.48;103740.03;5005919;28;20037;-77
2022/03/18 04:04:49;;;;;;;18.48;8.05;;;;;;;0.40;87.84;103743.47;5023013;28;20071;-77
2022/03/18 04:07:14;;;;;;;16.80;8.60;;;;;;;0.38;88.40;103740.09;5021323;28;20121;-77
2022/03/18 04:09:40;;;;;;;17.60;8.75;;;;;;;0.36;87.91;103747.78;4987994;28;20136;-77
2022/03/18 04:12:06;;;;;;;18.40;9.10;;;;;;;0.33;87.92;103742.69;5019860;28;20270;-76
2022/03/18 04:14:31;;;;;;;18.35;8.82;;;;;;;0.32;87.91;103741.00;5025161;28;20083;-77
2022/03/18 04:16:57;;;;;;;16.80;8.40;;;;;;;0.30;88.27;103746.97;5020450;28;20036;-77
2022/03/18 04:19:23;;;;;;;16.88;9.02;;;;;;;0.28;87.96;103754.66;5023503;28;20437;-76
2022/03/18 04:21:49;;;;;;;19.58;8.27;;;;;;;0.22;87.34;103749.63;5003121;28;20502;-76
2022/03/18 04:24:14;;;;;;;21.00;9.85;;;;;;;0.16;87.21;103749.69;5003383;28;20045;-76
2022/03/18 04:26:40;;;;;;;21.40;9.20;;;;;;;0.10;87.12;103763.38;5022103;28;20033;-77
2022/03/18 04:29:08;;;;;;;20.35;8.88;;;;;;;0.04;87.45;103755.78;5021688;28;20033;-77
2022/03/18 04:31:33;;;;;;;18.40;9.20;;;;;;;-0.02;87.54;103756.69;5020701;28;20040;-77
2022/03/18 04:33:59;;;;;;;18.92;9.05;;;;;;;-0.04;87.96;103760.97;5021756;28;20038;-77
2022/03/18 04:36:24;;;;;;;20.98;9.10;;;;;;;-0.09;87.81;103778.00;5023138;28;20037;-76
2022/03/18 04:38:50;;;;;;;20.90;9.48;;;;;;;-0.14;87.79;103786.56;5020438;28;20037;-77
2022/03/18 04:41:15;;;;;;;14.73;8.50;;;;;;;-0.19;88.01;103781.47;5025435;28;20103;-77
2022/03/18 04:43:41;;;;;;;20.30;9.25;;;;;;;-0.22;88.78;103784.91;5020634;28;20033;-76
2022/03/18 04:46:06;;;;;;;21.45;9.13;;;;;;;-0.21;88.45;103785.75;5019371;28;20038;-77
2022/03/18 04:48:32;;;;;;;16.42;8.75;;;;;;;-0.20;89.08;103787.47;5021802;28;20044;-77
2022/03/18 04:50:57;;;;;;;20.48;9.50;;;;;;;-0.21;89.08;103794.28;5020560;28;20045;-77
2022/03/18 04:53:23;;;;;;;20.48;9.15;;;;;;;-0.22;89.37;103784.91;5004678;28;20206;-76
2022/03/18 04:55:49;;;;;;;19.35;8.90;;;;;;;-0.24;89.69;103794.28;5011571;28;20042;-77
2022/03/18 04:58:14;;;;;;;21.60;9.90;;;;;;;-0.23;89.63;103797.66;5025576;28;20040;-77
2022/03/18 05:00:39;;;;;;;30.90;9.98;;;;;;;-0.23;90.18;103800.22;5025799;28;20037;-77
2022/03/18 05:03:05;;;;;;;24.85;9.63;;;;;;;-0.28;89.76;103807.09;5023035;28;20048;-77
2022/03/18 05:05:31;;;;;;;19.98;9.50;;;;;;;-0.33;89.72;103799.47;5010405;28;20026;-77
2022/03/18 05:07:58;;;;;;;19.48;9.48;;;;;;;-0.35;90.10;103811.38;5008297;28;20044;-77
2022/03/18 05:10:24;;;;;;;21.02;10.30;;;;;;;-0.37;90.06;103825.84;5018638;28;20069;-77
2022/03/18 05:12:50;;;;;;;24.67;9.52;;;;;;;-0.41;90.29;103830.13;4996647;28;20037;-77
2022/03/18 05:15:16;;;;;;;19.50;9.70;;;;;;;-0.43;90.40;103826.72;4992457;28;20042;-77
2022/03/18 05:17:49;;;;;;;24.02;10.65;;;;;;;-0.43;90.47;103838.66;5009624;28;20048;-77
2022/03/18 05:20:14;;;;;;;20.35;10.00;;;;;;;-0.44;90.25;103834.38;5024210;28;20034;-78
2022/03/18 05:22:39;;;;;;;19.48;9.95;;;;;;;-0.44;90.47;103839.50;4993575;28;20038;-78
2022/03/18 05:25:05;;;;;;;22.48;10.13;;;;;;;-0.46;90.70;103842.03;5025239;28;20178;-78
2022/03/18 05:27:31;;;;;;;24.38;11.18;;;;;;;-0.47;90.70;103844.59;5028296;28;20140;-78
2022/03/18 05:29:56;;;;;;;30.30;11.02;;;;;;;-0.48;91.08;103853.97;4996735;28;20515;-78
2022/03/18 05:32:22;;;;;;;31.55;11.07;;;;;;;-0.50;91.17;103849.72;5028645;28;20033;-77
2022/03/18 05:34:47;;;;;;;27.98;10.77;;;;;;;-0.51;91.23;103855.66;5007795;28;20413;-78
2022/03/18 05:37:13;;;;;;;23.75;9.88;;;;;;;-0.52;90.97;103862.50;5020742;28;20040;-78
2022/03/18 05:39:38;;;;;;;25.20;9.95;;;;;;;-0.52;90.68;103871.84;5025923;28;20025;-78
2022/03/18 05:42:04;;;;;;;23.60;11.30;;;;;;;-0.53;91.03;103880.34;5009687;28;20034;-78
2022/03/18 05:44:30;;;;;;;21.13;10.57;;;;;;;-0.54;91.39;103886.31;5028353;28;20543;-77
2022/03/18 05:46:56;;;;;;;29.88;10.77;;;;;;;-0.55;91.06;103876.94;5014286;28;20039;-77
2022/03/18 05:49:22;;;;;;;20.35;10.10;;;;;;;-0.55;90.93;103889.69;5027089;28;20036;-78
2022/03/18 05:51:48;;;;;;;20.83;10.70;;;;;;;-0.56;90.87;103886.31;5009825;28;20033;-78
2022/03/18 05:54:13;;;;;;;24.52;10.20;;;;;;;-0.56;90.87;103893.97;5030077;28;20085;-78
2022/03/18 05:56:55;;;;;;;24.85;11.25;;;;;;;-0.58;91.30;103890.56;5006852;28;20560;-78
2022/03/18 05:59:20;;;;;;;24.00;10.93;;;;;;;-0.59;91.23;103892.25;5013800;28;20122;-78
2022/03/18 06:01:45;;;;;;;21.25;10.57;;;;;;;-0.58;91.32;103900.78;4993482;28;20486;-78
2022/03/18 06:04:14;;;;;;;26.88;11.05;;;;;;;-0.60;91.52;103905.03;4996728;28;20315;-78
2022/03/18 06:06:40;;;;;;;22.25;11.20;;;;;;;-0.61;91.39;103906.72;5005523;28;20026;-78
2022/03/18 06:11:53;;;;;;;25.42;12.35;;;;;;;-0.60;91.84;103899.94;5025341;28;20321;-78
2022/03/18 06:14:22;;;;;;;20.65;10.50;;;;;;;-0.60;91.77;103902.47;4993066;28;20052;-78
2022/03/18 06:16:56;;;;;;;20.70;10.68;;;;;;;-0.62;91.98;103899.94;5006728;28;20049;-78
2022/03/18 06:19:23;;;;;;;21.85;10.52;;;;;;;-0.61;91.88;103914.34;5009870;28;20414;-78
2022/03/18 06:21:50;;;;;;;23.42;10.55;;;;;;;-0.61;92.09;103906.72;5008900;28;20117;-78
2022/03/18 06:24:16;;;;;;;21.85;11.93;;;;;;;-0.62;91.99;103905.03;5012236;28;20041;-78
2022/03/18 06:26:43;;;;;;;25.00;10.45;;;;;;;-0.60;92.32;103910.13;5009592;28;20041;-77
2022/03/18 06:29:08;;;;;;;24.48;11.07;;;;;;;-0.57;92.24;103922.00;4992991;28;20041;-78
2022/03/18 06:31:35;;;;;;;25.00;10.80;;;;;;;-0.56;92.32;103916.06;5012637;28;20041;-78
2022/03/18 06:34:00;;;;;;;26.92;10.60;;;;;;;-0.55;91.95;103923.69;5023764;28;20034;-77
2022/03/18 06:36:26;;;;;;;22.05;10.50;;;;;;;-0.52;91.81;103930.47;5024569;28;20022;-78
2022/03/18 06:38:53;;;;;;;21.60;11.27;;;;;;;-0.49;91.73;103935.53;4992652;28;20592;-78
2022/03/18 06:41:19;;;;;;;23.05;10.40;;;;;;;-0.43;92.19;103944.03;5013038;28;20036;-78
2022/03/18 06:43:48;;;;;;;27.30;11.55;;;;;;;-0.33;92.60;103941.44;5021247;28;20033;-77
2022/03/18 06:46:14;;;;;;;34.72;15.23;;;;;;;-0.04;92.26;103939.56;5024652;28;20589;-78
2022/03/18 06:48:43;;;;;;;29.73;14.02;;;;;;;0.45;92.35;103942.56;5027110;28;20029;-78
2022/03/18 06:51:10;;;;;;;30.38;15.77;;;;;;;1.09;92.27;103941.94;5009466;28;20060;-78
2022/03/18 06:53:35;;;;;;;29.80;13.27;;;;;;;1.88;90.74;103944.31;5008358;28;20048;-78
2022/03/18 06:56:01;;;;;;;30.00;14.07;;;;;;;2.73;88.08;103933.53;5023149;28;20042;-78
2022/03/18 06:58:29;;;;;;;26.45;11.90;;;;;;;3.57;85.89;103944.69;5008907;28;20041;-78
2022/03/18 07:00:55;;;;;;;25.70;11.65;;;;;;;4.33;82.44;103936.88;4990703;28;20094;-79
2022/03/18 07:03:21;;;;;;;25.75;11.77;;;;;;;4.83;77.25;103928.75;5025818;28;20482;-78
2022/03/18 07:05:46;;;;;;;28.98;10.65;;;;;;;5.40;75.42;103921.97;5023123;28;20103;-78
2022/03/18 07:08:12;;;;;;;20.45;9.30;;;;;;;5.93;73.99;103924.59;5027218;28;20135;-79
2022/03/18 07:10:38;;;;;;;23.52;10.27;;;;;;;6.34;71.10;103921.59;5004816;28;20038;-79
2022/03/18 07:13:04;;;;;;;16.15;9.32;;;;;;;6.76;70.47;103924.44;5011293;28;20133;-79
2022/03/18 07:15:29;;;;;;;24.30;9.65;;;;;;;7.26;68.35;103923.44;4995577;28;20034;-79
2022/03/18 07:17:55;;;;;;;20.20;8.95;;;;;;;7.52;66.79;103929.38;5023515;28;20037;-79
2022/03/18 07:20:23;;;;;;;15.32;7.68;;;;;;;7.85;65.24;103926.34;5024020;28;20029;-78
2022/03/18 07:23:09;;;;;;;20.77;8.23;;;;;;;8.10;64.96;103933.91;5023650;28;20454;-79
2022/03/18 07:25:39;;;;;;;16.98;8.13;;;;;;;8.26;64.16;103926.38;4995356;28;20393;-79
2022/03/18 07:28:08;;;;;;;15.18;7.72;;;;;;;8.37;64.36;103927.59;5026376;28;20136;-78
2022/03/18 07:30:34;;;;;;;18.45;7.72;;;;;;;8.83;63.60;103931.72;5027904;28;20433;-79
2022/03/18 07:32:59;;;;;;;24.02;7.95;;;;;;;9.08;62.40;103929.72;5009071;28;20037;-79
2022/03/18 07:35:25;;;;;;;16.77;8.10;;;;;;;9.40;62.44;103937.75;5007612;28;20033;-79
2022/03/18 07:37:51;;;;;;;23.63;7.55;;;;;;;9.55;60.78;103933.59;5025770;28;20498;-79
2022/03/18 07:40:18;;;;;;;25.52;8.20;;;;;;;9.57;59.95;103928.31;5008651;28;20041;-78
2022/03/18 07:42:53;;;;;;;17.45;6.78;;;;;;;9.77;57.38;103920.41;5025636;28;20028;-78
2022/03/18 07:45:26;;;;;;;18.02;7.70;;;;;;;9.42;59.48;103915.19;5029415;28;20486;-78
2022/03/18 07:47:53;;;;;;;17.88;6.90;;;;;;;9.86;58.33;103919.16;5008324;28;20128;-78
2022/03/18 07:50:20;;;;;;;33.25;11.48;;;;;;;9.97;58.30;103910.84;5007399;28;20029;-78
2022/03/18 07:52:49;;;;;;;26.05;8.88;;;;;;;10.03;56.92;103910.53;5008314;28;20531;-78
2022/03/18 07:55:17;;;;;;;21.13;6.32;;;;;;;10.45;56.13;103907.56;5025717;28;20044;-78
2022/03/18 07:57:42;;;;;;;22.33;7.10;;;;;;;10.56;56.07;103913.94;5006152;28;20040;-78
2022/03/18 08:00:10;;;;;;;17.98;6.82;;;;;;;10.66;57.65;103909.91;4995503;28;20494;-78
2022/03/18 08:02:43;;;;;;;15.02;6.13;;;;;;;11.33;54.80;103915.81;5024384;28;20405;-78
2022/03/18 08:05:11;;;;;;;20.27;6.72;;;;;;;11.32;54.68;103915.91;5023616;28;20464;-78
2022/03/18 08:07:37;;;;;;;14.23;6.60;;;;;;;11.45;53.89;103922.09;5003300;28;20099;-78
2022/03/18 08:10:04;;;;;;;17.63;5.70;;;;;;;11.60;54.45;103921.25;5020867;28;21283;-77
2022/03/18 08:12:31;;;;;;;17.83;5.53;;;;;;;11.52;51.95;103930.41;5022091;28;20713;-78
2022/03/18 08:15:04;;;;;;;16.10;5.60;;;;;;;11.37;53.77;103930.31;4991580;28;20264;-78
2022/03/18 08:17:30;;;;;;;20.80;5.18;;;;;;;10.96;54.17;103929.97;5007585;28;20034;-77
2022/03/18 08:19:56;;;;;;;18.70;5.05;;;;;;;11.15;53.08;103938.47;5007935;28;20052;-79
2022/03/18 08:22:22;;;;;;;14.13;4.40;;;;;;;10.80;54.19;103942.94;5022072;28;20060;-78
2022/03/18 08:24:48;;;;;;;12.30;3.88;;;;;;;10.64;54.22;103943.75;5028506;28;20365;-79
2022/03/18 08:27:13;;;;;;;12.98;4.70;;;;;;;11.26;54.33;103951.72;5020269;28;20022;-78
2022/03/18 08:29:39;;;;;;;16.90;5.28;;;;;;;11.37;53.38;103948.50;5034124;28;20587;-78
2022/03/18 08:32:06;;;;;;;24.83;4.88;;;;;;;11.88;52.43;103962.13;5029115;28;20037;-79
2022/03/18 08:34:32;;;;;;;20.90;4.57;;;;;;;12.15;52.50;103958.88;5019377;28;20071;-79
2022/03/18 08:36:57;;;;;;;13.48;4.32;;;;;;;11.79;52.75;103967.84;5026601;28;20037;-79
2022/03/18 08:39:24;;;;;;;14.13;3.70;;;;;;;12.11;51.86;103980.78;5011703;28;20033;-78
2022/03/18 08:41:50;;;;;;;19.20;4.20;;;;;;;11.99;52.83;103971.09;5030978;28;20393;-78
2022/03/18 08:44:19;;;;;;;12.52;3.83;;;;;;;12.10;52.50;103975.69;5030627;28;20025;-78
2022/03/18 08:46:46;;;;;;;15.05;4.03;;;;;;;12.37;51.31;103979.25;5029053;28;20029;-78
2022/03/18 08:49:12;;;;;;;15.00;3.50;;;;;;;12.58;52.22;103984.97;5027769;28;20424;-78
2022/03/18 08:51:38;;;;;;;12.35;4.10;;;;;;;12.52;49.61;103990.50;5025672;28;20529;-78
2022/03/18 08:54:04;;;;;;;12.68;3.08;;;;;;;12.83;49.28;103994.72;5028102;28;20044;-78
2022/03/18 08:56:30;;;;;;;13.05;2.85;;;;;;;12.64;49.42;103991.56;5028586;28;20655;-78
2022/03/18 08:58:56;;;;;;;15.25;3.40;;;;;;;12.90;49.12;103999.56;5010219;28;20033;-79
2022/03/18 09:01:22;;;;;;;9.10;2.47;;;;;;;12.51;48.92;103996.66;5009417;28;20096;-79
2022/03/18 09:03:48;;;;;;;15.23;2.38;;;;;;;12.66;48.55;103995.75;5002313;28;20030;-78
2022/03/18 09:06:14;;;;;;;13.75;2.58;;;;;;;12.27;47.22;103999.78;5013947;28;20037;-79
2022/03/18 09:08:41;;;;;;;12.02;2.78;;;;;;;12.22;48.63;103998.38;5013998;28;20033;-79
2022/03/18 09:11:07;;;;;;;9.18;2.70;;;;;;;12.10;48.58;104010.31;5021780;28;20037;-79
2022/03/18 09:13:35;;;;;;;8.50;2.25;;;;;;;12.16;49.90;104012.56;5000550;28;20021;-78
2022/03/18 09:16:02;;;;;;;15.30;2.80;;;;;;;12.33;49.75;104015.97;5025095;28;20098;-78
2022/03/18 09:18:27;;;;;;;8.60;1.92;;;;;;;11.46;49.90;104018.16;5010377;28;20037;-79
2022/03/18 09:20:53;;;;;;;8.65;2.30;;;;;;;11.75;49.12;104012.28;5013914;28;20025;-77
2022/03/18 09:23:18;;;;;;;11.45;2.50;;;;;;;12.01;47.95;104013.44;5012774;28;20030;-78
2022/03/18 09:25:44;;;;;;;8.05;2.85;;;;;;;11.67;47.30;104020.50;5029067;28;20034;-79
2022/03/18 09:28:09;;;;;;;15.48;3.10;;;;;;;11.93;49.31;104026.06;5031929;28;20045;-78
2022/03/18 09:30:35;;;;;;;10.95;2.55;;;;;;;11.83;48.97;104021.34;5032123;28;20033;-78
2022/03/18 09:33:02;;;;;;;8.70;2.72;;;;;;;11.91;47.34;104020.94;5014211;28;20073;-78
2022/03/18 09:35:27;;;;;;;10.60;2.72;;;;;;;11.73;48.13;104025.34;5013653;28;20514;-78
2022/03/18 09:37:53;;;;;;;7.50;2.63;;;;;;;11.94;49.97;104030.31;4995856;28;20040;-79
2022/03/18 09:40:18;;;;;;;9.13;2.38;;;;;;;12.21;48.18;104027.91;5010031;28;20429;-78
2022/03/18 09:43:01;;;;;;;10.65;2.38;;;;;;;12.06;47.71;104037.44;5014581;28;20099;-78
2022/03/18 09:45:30;;;;;;;8.48;2.63;;;;;;;11.95;48.95;104040.63;5032970;28;20042;-78
2022/03/18 09:47:58;;;;;;;9.15;2.53;;;;;;;11.58;48.14;104040.03;5007322;28;20052;-78
2022/03/18 09:50:24;;;;;;;11.68;3.30;;;;;;;11.61;49.90;104044.25;5011067;28;20033;-78
2022/03/18 09:52:50;;;;;;;7.85;2.28;;;;;;;11.45;49.37;104039.03;5028175;28;20083;-78
2022/03/18 09:55:16;;;;;;;10.05;2.65;;;;;;;11.41;49.85;104033.16;5028196;28;20397;-78
2022/03/18 09:57:42;;;;;;;10.85;2.50;;;;;;;11.30;49.57;104044.16;5023965;28;20163;-79
2022/03/18 10:00:10;;;;;;;8.57;2.97;;;;;;;11.20;51.04;104042.09;5011909;28;20048;-79
2022/03/18 10:02:37;;;;;;;7.85;2.95;;;;;;;11.17;50.80;104050.06;5026830;28;20128;-79
2022/03/18 10:05:08;;;;;;;8.57;3.13;;;;;;;11.38;52.04;104048.94;5007879;28;20437;-78
2022/03/18 10:07:33;;;;;;;10.25;4.20;;;;;;;11.42;52.66;104045.22;4997327;28;20021;-78
2022/03/18 10:10:04;;;;;;;12.45;4.90;;;;;;;11.23;52.86;104041.94;5025953;28;20383;-78
2022/03/18 10:12:34;;;;;;;10.50;3.78;;;;;;;11.28;52.13;104045.13;5021026;28;20040;-78
2022/03/18 10:15:17;;;;;;;15.45;3.67;;;;;;;11.20;52.29;104047.31;4995232;28;20044;-78
2022/03/18 10:17:45;;;;;;;9.23;2.90;;;;;;;10.99;51.60;104038.88;5009690;28;20569;-78
2022/03/18 10:20:24;;;;;;;11.05;3.17;;;;;;;10.93;52.78;104040.03;5027200;28;20037;-78
2022/03/18 10:22:51;;;;;;;14.30;4.53;;;;;;;11.11;52.99;104048.63;5030173;28;20136;-79
2022/03/18 10:25:36;;;;;;;18.83;3.70;;;;;;;11.03;51.63;104037.78;5012187;28;20029;-77
2022/03/18 10:28:03;;;;;;;8.32;4.05;;;;;;;11.06;52.05;104035.88;5027961;28;20056;-78
2022/03/18 10:30:29;;;;;;;9.98;3.45;;;;;;;10.99;50.87;104033.69;5016258;28;20076;-79
2022/03/18 10:32:55;;;;;;;14.70;4.35;;;;;;;11.06;51.22;104035.06;5030205;28;20078;-78
2022/03/18 10:38:28;;;;;;;12.52;3.45;;;;;;;11.36;50.98;104035.19;5010325;28;20359;-78
2022/03/18 10:40:54;;;;;;;11.30;3.92;;;;;;;11.38;50.93;104032.50;5027705;28;20033;-79
2022/03/18 10:43:20;;;;;;;22.85;3.78;;;;;;;11.35;50.46;104038.69;5013425;28;20052;-79
2022/03/18 10:46:05;;;;;;;14.07;3.80;;;;;;;11.67;51.42;104043.91;5024608;28;20437;-79
2022/03/18 10:48:32;;;;;;;14.05;4.00;;;;;;;11.63;51.19;104035.44;5007916;28;20064;-79
2022/03/18 10:51:07;;;;;;;11.23;4.07;;;;;;;11.60;51.47;104034.75;5027721;28;20160;-78
2022/03/18 10:53:33;;;;;;;10.00;3.10;;;;;;;11.87;48.87;104038.44;5019920;28;20037;-79
2022/03/18 10:56:01;;;;;;;16.88;3.33;;;;;;;11.55;48.00;104044.59;5029152;28;20501;-79
2022/03/18 10:58:33;;;;;;;9.43;3.40;;;;;;;11.93;48.50;104041.66;5014438;28;20444;-79
2022/03/18 11:01:03;;;;;;;11.73;3.65;;;;;;;11.83;48.42;104047.34;5025218;28;20099;-79
2022/03/18 11:03:30;;;;;;;15.93;4.72;;;;;;;11.92;48.91;104045.16;5028634;28;20041;-79
2022/03/18 11:06:02;;;;;;;8.65;4.38;;;;;;;11.90;49.34;104044.41;5013759;28;20033;-78
2022/03/18 11:08:35;;;;;;;11.85;4.00;;;;;;;11.86;49.63;104047.16;4997278;28;20033;-79
2022/03/18 11:11:07;;;;;;;11.38;3.85;;;;;;;11.83;49.01;104046.50;5031011;28;20029;-79
2022/03/18 11:13:45;;;;;;;16.45;4.18;;;;;;;12.00;48.86;104043.00;5030927;28;20577;-80
2022/03/18 11:16:12;;;;;;;11.43;3.47;;;;;;;12.04;47.55;104047.91;5024401;28;20026;-79
2022/03/18 11:18:39;;;;;;;10.73;3.55;;;;;;;12.21;47.02;104035.72;5014617;28;20037;-79
2022/03/18 11:21:07;;;;;;;8.35;3.25;;;;;;;12.23;46.35;104041.69;5021268;28;20473;-79
2022/03/18 11:23:34;;;;;;;13.00;3.60;;;;;;;12.17;46.12;104040.25;5013665;28;20116;-79
2022/03/18 11:26:00;;;;;;;11.48;3.58;;;;;;;12.30;47.61;104044.75;5008447;28;20030;-79
2022/03/18 11:28:26;;;;;;;15.30;4.28;;;;;;;12.07;47.38;104036.50;4994614;28;20410;-78
2022/03/18 11:31:21;;;;;;;11.65;3.72;;;;;;;12.13;47.82;104033.56;5025566;28;20037;-79
2022/03/18 11:34:07;;;;;;;11.65;3.42;;;;;;;12.36;46.29;104034.84;5014903;28;20098;-77